Time;durP1;ratioP1;P1;durP2;ratioP2;P2;SDS_P1;SDS_P2;PMS_P1;PMS_P2;Temp;Humidity;BMP_temperature;BMP_pressure;BME280_temperature;BME280_humidity;BME280_pressure;Samples;Min_cycle;Max_cycle;Signal;HPM_P1;HPM_P2
2023/06/10 00:02:10;;;;;;;5.13;2.20;;;;;;;21.23;59.85;98442.06;6161279;23;20150;-89
2023/06/10 00:04:37;;;;;;;4.13;2.10;;;;;;;21.23;59.92;98452.72;6161205;23;20517;-89
2023/06/10 00:07:08;;;;;;;9.37;2.87;;;;;;;21.23;59.54;98444.75;6187392;23;20197;-89
2023/06/10 00:09:36;;;;;;;6.03;2.07;;;;;;;21.21;59.76;98433.41;6187154;23;20551;-89
2023/06/10 00:12:07;;;;;;;3.97;2.30;;;;;;;21.11;60.39;98431.91;6187559;23;20625;-89
2023/06/10 00:14:35;;;;;;;5.17;2.43;;;;;;;21.07;60.20;98431.38;6187158;23;20192;-89
2023/06/10 00:17:02;;;;;;;5.90;2.33;;;;;;;21.06;60.31;98436.84;6187231;23;20160;-90
2023/06/10 00:19:29;;;;;;;6.87;2.47;;;;;;;21.09;60.30;98439.22;6186932;23;20155;-89
2023/06/10 00:21:56;;;;;;;4.87;2.03;;;;;;;21.11;60.16;98430.06;6187646;23;20153;-89
2023/06/10 00:24:23;;;;;;;7.40;2.10;;;;;;;21.13;60.21;98435.22;6187256;23;20161;-89
2023/06/10 00:26:50;;;;;;;7.87;2.47;;;;;;;21.11;60.41;98429.22;6160803;23;20155;-89
2023/06/10 00:29:17;;;;;;;6.93;2.53;;;;;;;21.10;60.36;98433.72;6186883;23;20212;-89
2023/06/10 00:31:45;;;;;;;5.87;2.37;;;;;;;21.04;60.18;98434.34;6186682;23;20174;-89
2023/06/10 00:34:12;;;;;;;7.37;2.23;;;;;;;21.01;60.82;98437.34;6186585;23;20269;-89
2023/06/10 00:36:38;;;;;;;8.47;2.47;;;;;;;20.92;60.93;98432.16;6160838;23;20680;-89
2023/06/10 00:39:04;;;;;;;5.27;1.77;;;;;;;20.83;61.24;98440.13;6160733;23;20208;-89
2023/06/10 00:41:30;;;;;;;3.53;1.87;;;;;;;20.79;61.08;98438.78;6187338;23;20154;-89
2023/06/10 00:43:57;;;;;;;7.30;2.73;;;;;;;20.83;60.73;98433.97;6186864;23;20627;-89
2023/06/10 00:46:26;;;;;;;6.13;2.57;;;;;;;20.82;60.44;98427.81;6186741;23;20596;-89
2023/06/10 00:48:52;;;;;;;8.27;2.53;;;;;;;20.84;60.14;98427.63;6186731;23;20161;-89
2023/06/10 00:51:20;;;;;;;5.50;2.57;;;;;;;20.77;60.17;98430.13;6186659;23;20154;-89
2023/06/10 00:53:47;;;;;;;5.90;2.43;;;;;;;20.71;60.55;98436.09;6186729;23;20150;-89
2023/06/10 00:56:13;;;;;;;5.17;2.20;;;;;;;20.68;60.95;98431.06;6160647;23;20162;-89
2023/06/10 00:58:40;;;;;;;8.03;1.93;;;;;;;20.64;61.24;98434.22;6161406;23;20154;-89
2023/06/10 01:01:10;;;;;;;6.50;3.27;;;;;;;20.59;61.35;98431.22;6160705;23;20166;-89
2023/06/10 01:03:37;;;;;;;6.47;2.80;;;;;;;20.60;61.23;98424.88;6187016;23;20134;-90
2023/06/10 01:06:37;;;;;;;8.00;3.00;;;;;;;20.62;61.10;98429.06;6160497;23;20253;-89
2023/06/10 01:09:40;;;;;;;9.57;2.40;;;;;;;20.55;61.95;98436.03;6117498;23;20491;-89
2023/06/10 01:12:19;;;;;;;4.80;2.20;;;;;;;20.46;62.22;98436.16;6160551;23;20182;-89
2023/06/10 01:14:48;;;;;;;6.27;2.50;;;;;;;20.39;62.50;98424.50;6187554;23;20139;-89
2023/06/10 01:17:17;;;;;;;5.53;2.50;;;;;;;20.38;62.43;98422.81;6186421;23;20221;-89
2023/06/10 01:19:52;;;;;;;5.30;2.20;;;;;;;20.36;62.52;98430.13;6186405;23;20233;-89
2023/06/10 01:22:20;;;;;;;5.33;2.20;;;;;;;20.31;62.72;98432.44;6160360;23;20190;-89
2023/06/10 01:24:50;;;;;;;5.60;2.40;;;;;;;20.32;62.37;98428.75;6186791;23;20212;-88
2023/06/10 01:27:19;;;;;;;4.77;2.90;;;;;;;20.30;62.51;98438.72;6160371;23;20154;-89
2023/06/10 01:30:03;;;;;;;6.07;3.00;;;;;;;20.21;62.49;98432.50;6186321;23;20158;-89
2023/06/10 01:32:43;;;;;;;5.30;2.73;;;;;;;20.15;62.56;98439.28;6186370;23;20206;-89
2023/06/10 01:35:10;;;;;;;6.47;2.53;;;;;;;20.14;62.10;98437.63;6160980;23;20229;-89
2023/06/10 01:37:39;;;;;;;3.60;2.10;;;;;;;20.15;62.39;98433.94;6160060;23;20158;-89
2023/06/10 01:40:08;;;;;;;3.80;1.80;;;;;;;20.18;61.91;98438.97;6160261;23;20229;-89
2023/06/10 01:42:35;;;;;;;6.67;3.13;;;;;;;20.17;61.69;98432.00;6160142;23;20523;-89
2023/06/10 01:45:02;;;;;;;5.57;2.43;;;;;;;20.17;61.04;98426.66;6186145;23;20158;-89
2023/06/10 01:47:29;;;;;;;8.13;2.20;;;;;;;20.10;61.66;98422.94;6160534;23;20158;-90
2023/06/10 01:49:55;;;;;;;6.67;2.47;;;;;;;20.05;61.73;98427.91;6160149;23;20582;-89
2023/06/10 01:52:21;;;;;;;4.93;2.33;;;;;;;20.05;61.77;98429.72;6185931;23;20209;-89
2023/06/10 01:54:49;;;;;;;4.90;2.60;;;;;;;20.09;61.55;98428.44;6186180;23;20157;-90
2023/06/10 01:57:16;;;;;;;5.57;2.60;;;;;;;20.08;61.41;98429.44;6185999;23;20625;-89
2023/06/10 01:59:44;;;;;;;5.50;2.20;;;;;;;20.04;61.55;98431.59;6186360;23;20593;-89
2023/06/10 02:02:09;;;;;;;4.70;2.57;;;;;;;20.03;61.85;98432.56;6186308;23;20143;-89
2023/06/10 02:04:35;;;;;;;5.90;2.87;;;;;;;20.03;61.07;98429.91;6185939;23;20242;-89
2023/06/10 02:07:03;;;;;;;10.00;2.60;;;;;;;20.04;61.03;98436.91;6185995;23;20601;-89
2023/06/10 02:09:30;;;;;;;5.33;2.53;;;;;;;19.96;61.13;98438.66;6185815;23;20617;-89
2023/06/10 02:11:58;;;;;;;4.13;2.37;;;;;;;19.90;61.52;98439.28;6185908;23;20174;-89
2023/06/10 02:14:23;;;;;;;7.93;2.73;;;;;;;19.87;61.52;98435.13;6186192;23;20146;-90
2023/06/10 02:16:51;;;;;;;4.10;2.07;;;;;;;19.84;61.58;98446.06;6185744;23;20205;-89
2023/06/10 02:19:18;;;;;;;6.30;2.43;;;;;;;19.83;61.66;98441.75;6186545;23;20233;-89
2023/06/10 02:21:45;;;;;;;5.83;2.40;;;;;;;19.88;61.65;98447.44;6185779;23;20158;-89
2023/06/10 02:24:10;;;;;;;4.00;2.10;;;;;;;19.99;61.23;98444.53;6186158;23;20165;-89
2023/06/10 02:26:37;;;;;;;4.20;2.57;;;;;;;20.02;61.00;98438.88;6185483;23;20150;-89
2023/06/10 02:29:03;;;;;;;5.37;2.80;;;;;;;19.94;61.35;98441.47;6186461;23;20151;-89
2023/06/10 02:31:30;;;;;;;5.47;2.47;;;;;;;19.82;61.92;98437.41;6160613;23;20178;-89
2023/06/10 02:33:56;;;;;;;10.00;2.47;;;;;;;19.77;62.53;98442.34;6185821;23;20177;-89
2023/06/10 02:36:23;;;;;;;6.47;2.53;;;;;;;19.80;62.21;98444.72;6185738;23;20150;-89
2023/06/10 02:38:51;;;;;;;4.70;2.77;;;;;;;19.81;62.20;98446.38;6185751;23;20161;-89
2023/06/10 02:41:17;;;;;;;7.23;2.67;;;;;;;19.73;63.05;98449.00;6159789;23;20154;-89
2023/06/10 02:43:44;;;;;;;4.47;2.53;;;;;;;19.74;62.85;98440.00;6186097;23;20213;-89
2023/06/10 02:46:11;;;;;;;6.37;2.50;;;;;;;19.86;62.19;98446.75;6159715;23;20154;-88
2023/06/10 02:48:45;;;;;;;5.47;2.73;;;;;;;19.89;62.58;98454.41;6159657;23;20162;-90
2023/06/10 02:51:12;;;;;;;6.67;2.57;;;;;;;19.81;63.25;98451.69;6159845;23;20181;-90
2023/06/10 02:53:39;;;;;;;8.20;3.30;;;;;;;19.75;64.01;98462.97;6159514;23;20193;-89
2023/06/10 02:56:04;;;;;;;7.90;2.50;;;;;;;19.76;64.45;98461.16;6185863;23;20146;-89
2023/06/10 02:58:32;;;;;;;4.40;2.30;;;;;;;19.83;64.25;98460.38;6159553;23;20165;-89
2023/06/10 03:00:58;;;;;;;12.77;3.33;;;;;;;19.82;64.77;98464.00;6185921;23;20158;-89
2023/06/10 03:03:25;;;;;;;10.00;3.30;;;;;;;19.83;65.18;98460.38;6159597;23;20150;-89
2023/06/10 03:05:52;;;;;;;6.33;3.07;;;;;;;19.89;65.30;98461.56;6159413;23;20233;-89
2023/06/10 03:08:18;;;;;;;6.27;2.83;;;;;;;19.95;65.32;98459.09;6185535;23;20161;-89
2023/06/10 03:10:45;;;;;;;5.03;3.07;;;;;;;20.02;65.21;98462.81;6185817;23;20150;-89
2023/06/10 03:13:11;;;;;;;5.07;2.70;;;;;;;20.03;65.77;98456.50;6186054;23;20193;-89
2023/06/10 03:15:37;;;;;;;5.80;3.17;;;;;;;20.09;66.01;98461.22;6185336;23;20158;-89
2023/06/10 03:18:04;;;;;;;7.70;3.37;;;;;;;20.17;65.99;98473.72;6185294;23;20597;-88
2023/06/10 03:20:31;;;;;;;11.00;3.57;;;;;;;20.25;65.87;98467.66;6185449;23;20146;-90
2023/06/10 03:22:57;;;;;;;5.67;3.43;;;;;;;20.36;65.78;98462.88;6159542;23;20237;-89
2023/06/10 03:25:23;;;;;;;11.23;3.50;;;;;;;20.47;65.87;98469.75;6185346;23;20189;-89
2023/06/10 03:27:50;;;;;;;6.10;3.83;;;;;;;20.53;65.89;98464.63;6185951;23;20154;-89
2023/06/10 03:30:17;;;;;;;6.40;3.33;;;;;;;20.55;66.81;98451.16;6161488;23;20224;-90
2023/06/10 03:32:43;;;;;;;4.93;2.90;;;;;;;20.54;67.17;98461.00;6161238;23;20206;-89
2023/06/10 03:35:09;;;;;;;8.40;3.23;;;;;;;20.55;67.41;98467.13;6187726;23;20503;-89
2023/06/10 03:37:36;;;;;;;8.13;3.40;;;;;;;20.49;66.97;98468.59;6161412;23;20522;-89
2023/06/10 03:40:01;;;;;;;5.07;3.00;;;;;;;20.45;66.37;98466.41;6161262;23;20157;-89
2023/06/10 03:42:28;;;;;;;5.87;2.93;;;;;;;20.41;66.36;98465.09;6187364;23;20147;-89
2023/06/10 03:44:56;;;;;;;7.47;3.53;;;;;;;20.41;66.38;98473.06;6187302;23;20277;-89
2023/06/10 03:47:21;;;;;;;7.67;3.53;;;;;;;20.44;66.41;98472.75;6187633;23;20146;-89
2023/06/10 03:49:47;;;;;;;7.07;2.90;;;;;;;20.48;66.38;98466.09;6187259;23;20162;-90
2023/06/10 03:52:12;;;;;;;10.73;3.70;;;;;;;20.56;65.99;98469.66;6187214;23;20189;-89
2023/06/10 03:54:39;;;;;;;9.73;2.77;;;;;;;20.71;65.33;98472.53;6161162;23;20220;-89
2023/06/10 03:57:06;;;;;;;7.23;3.20;;;;;;;20.83;65.31;98465.94;6187139;23;20153;-89
2023/06/10 03:59:32;;;;;;;7.00;3.70;;;;;;;20.84;65.25;98467.59;6187378;23;20151;-89
2023/06/10 04:02:01;;;;;;;9.13;3.53;;;;;;;20.87;65.53;98461.94;6187470;23;20583;-89
2023/06/10 04:04:28;;;;;;;7.27;3.50;;;;;;;20.93;65.74;98465.78;6187372;23;20146;-89
2023/06/10 04:06:54;;;;;;;7.73;3.23;;;;;;;20.99;66.04;98465.97;6161160;23;20154;-89
2023/06/10 04:09:21;;;;;;;8.00;3.63;;;;;;;21.03;66.32;98462.00;6161032;23;20181;-89
2023/06/10 04:11:48;;;;;;;7.30;3.37;;;;;;;21.10;66.56;98456.88;6187266;23;20177;-89
2023/06/10 04:14:15;;;;;;;7.87;3.37;;;;;;;21.14;66.83;98453.72;6161421;23;20216;-89
2023/06/10 04:16:42;;;;;;;6.27;3.40;;;;;;;21.23;67.16;98452.72;6187370;23;20157;-89
2023/06/10 04:19:09;;;;;;;5.70;3.20;;;;;;;21.31;67.65;98455.41;6186962;23;20161;-89
2023/06/10 04:21:36;;;;;;;12.03;3.33;;;;;;;21.40;67.87;98450.94;6160952;23;20193;-89
2023/06/10 04:24:02;;;;;;;8.10;2.83;;;;;;;21.48;67.83;98452.78;6187169;23;20150;-89
2023/06/10 04:26:29;;;;;;;10.87;3.90;;;;;;;21.57;67.60;98454.44;6160830;23;20612;-89
2023/06/10 04:28:56;;;;;;;6.30;3.40;;;;;;;21.73;66.80;98444.59;6160945;23;20555;-89
2023/06/10 04:31:22;;;;;;;5.70;3.20;;;;;;;21.90;66.46;98445.47;6186896;23;20189;-89
2023/06/10 04:33:49;;;;;;;7.50;3.30;;;;;;;21.99;66.83;98439.09;6186726;23;20212;-89
2023/06/10 04:36:16;;;;;;;7.80;2.80;;;;;;;22.00;67.20;98440.78;6186647;23;20174;-89
2023/06/10 04:38:41;;;;;;;6.17;3.57;;;;;;;21.96;67.29;98442.09;6186791;23;20146;-89
2023/06/10 04:41:08;;;;;;;5.20;3.17;;;;;;;22.09;66.71;98449.59;6186805;23;20269;-89
2023/06/10 04:43:34;;;;;;;4.90;2.97;;;;;;;22.17;66.07;98452.28;6186737;23;20154;-89
2023/06/10 04:46:02;;;;;;;5.23;2.97;;;;;;;22.25;65.63;98447.72;6187392;23;20150;-89
2023/06/10 04:48:28;;;;;;;5.93;3.40;;;;;;;22.17;65.71;98442.41;6187055;23;20150;-89
2023/06/10 04:50:56;;;;;;;4.97;2.80;;;;;;;22.32;64.92;98437.22;6187386;23;20162;-89
2023/06/10 04:53:22;;;;;;;8.27;3.70;;;;;;;22.40;64.63;98431.84;6186552;23;20632;-89
2023/06/10 04:55:49;;;;;;;8.60;3.03;;;;;;;22.55;62.39;98438.97;6186634;23;20150;-89
2023/06/10 04:58:16;;;;;;;6.53;2.87;;;;;;;22.66;62.30;98434.28;6187279;23;20178;-89
2023/06/10 05:00:43;;;;;;;4.90;2.53;;;;;;;22.62;62.98;98441.75;6186589;23;20182;-89
2023/06/10 05:03:10;;;;;;;5.00;2.80;;;;;;;22.71;62.91;98439.91;6160530;23;20545;-89
2023/06/10 05:05:36;;;;;;;6.70;2.60;;;;;;;22.77;63.43;98442.75;6160618;23;20232;-89
2023/06/10 05:08:03;;;;;;;5.83;2.90;;;;;;;22.87;63.28;98446.03;6187164;23;20236;-89
2023/06/10 05:10:31;;;;;;;5.03;2.70;;;;;;;22.98;62.34;98447.47;6186879;23;20154;-88
2023/06/10 05:12:58;;;;;;;10.30;3.07;;;;;;;23.05;61.16;98451.09;6186327;23;20174;-89
2023/06/10 05:15:23;;;;;;;5.20;2.90;;;;;;;23.14;60.85;98450.03;6186511;23;20454;-88
2023/06/10 05:17:51;;;;;;;7.77;3.80;;;;;;;23.21;61.35;98453.69;6186787;23;20165;-89
2023/06/10 05:20:18;;;;;;;6.73;3.10;;;;;;;23.27;60.55;98447.63;6186464;23;20173;-89
2023/06/10 05:22:45;;;;;;;5.83;2.80;;;;;;;23.39;59.61;98440.06;6160349;23;20161;-89
2023/06/10 05:25:11;;;;;;;6.60;2.67;;;;;;;23.53;58.37;98434.75;6160146;23;20155;-89
2023/06/10 05:27:40;;;;;;;6.20;2.53;;;;;;;23.63;58.14;98435.38;6186346;23;20158;-88
2023/06/10 05:30:07;;;;;;;3.93;2.47;;;;;;;23.73;57.85;98435.94;6186273;23;20147;-88
2023/06/10 05:32:34;;;;;;;9.13;3.00;;;;;;;23.91;57.97;98437.44;6186323;23;20186;-89
2023/06/10 05:35:01;;;;;;;5.63;2.87;;;;;;;24.10;58.00;98439.63;6186892;23;20141;-88
2023/06/10 05:37:26;;;;;;;5.53;2.53;;;;;;;24.25;58.18;98438.63;6186276;23;20171;-88
2023/06/10 05:39:53;;;;;;;4.87;2.40;;;;;;;24.35;56.75;98446.38;6159987;23;20549;-89
2023/06/10 05:42:19;;;;;;;4.27;2.20;;;;;;;24.47;54.19;98441.41;6186236;23;20150;-88
2023/06/10 05:44:46;;;;;;;4.90;2.40;;;;;;;24.64;55.14;98438.34;6186257;23;20147;-89
2023/06/10 05:47:11;;;;;;;4.33;2.03;;;;;;;24.77;52.74;98430.47;6160550;23;20608;-88
2023/06/10 05:49:37;;;;;;;7.73;2.47;;;;;;;24.86;53.45;98433.94;6160168;23;20154;-89
2023/06/10 05:52:03;;;;;;;7.10;2.90;;;;;;;25.02;52.62;98439.06;6185471;23;20175;-89
2023/06/10 05:54:28;;;;;;;5.40;2.37;;;;;;;25.13;53.28;98443.13;6186095;23;20245;-89
2023/06/10 05:56:54;;;;;;;4.37;2.07;;;;;;;25.21;52.52;98445.69;6160022;23;20166;-89
2023/06/10 05:59:19;;;;;;;3.87;1.87;;;;;;;25.33;51.92;98444.97;6160714;23;20472;-89
2023/06/10 06:01:45;;;;;;;4.70;2.03;;;;;;;25.41;50.67;98446.72;6185982;23;20147;-89
2023/06/10 06:04:11;;;;;;;4.37;2.60;;;;;;;25.39;50.52;98449.56;6186307;23;20562;-89
2023/06/10 06:06:40;;;;;;;4.50;2.60;;;;;;;25.37;51.59;98448.94;6160394;23;20155;-89
2023/06/10 06:09:07;;;;;;;11.17;3.27;;;;;;;25.38;51.89;98452.44;6160000;23;20182;-89
2023/06/10 06:11:35;;;;;;;5.33;2.23;;;;;;;25.39;52.90;98449.56;6185852;23;20205;-89
2023/06/10 06:14:01;;;;;;;6.30;3.53;;;;;;;25.46;53.55;98449.69;6185850;23;20457;-90
2023/06/10 06:16:28;;;;;;;10.57;4.70;;;;;;;25.58;53.21;98448.13;6159455;23;20158;-88
2023/06/10 06:18:55;;;;;;;18.23;9.30;;;;;;;25.59;53.99;98449.81;6160355;23;20154;-89
2023/06/10 06:21:24;;;;;;;12.83;6.30;;;;;;;25.67;53.05;98447.00;6186185;23;20651;-89
2023/06/10 06:23:57;;;;;;;6.80;4.47;;;;;;;25.79;53.50;98447.28;6185759;23;20153;-90
2023/06/10 06:26:25;;;;;;;62.50;27.30;;;;;;;25.83;52.46;98440.53;6186457;23;20137;-90
2023/06/10 06:28:52;;;;;;;46.47;18.80;;;;;;;25.87;53.01;98442.63;6185774;23;20582;-89
2023/06/10 06:31:17;;;;;;;8.87;4.27;;;;;;;26.02;52.77;98435.28;6186162;23;20208;-89
2023/06/10 06:33:44;;;;;;;77.40;30.47;;;;;;;26.06;52.75;98430.38;6185214;23;20202;-90
2023/06/10 06:36:11;;;;;;;14.90;6.93;;;;;;;26.12;52.99;98432.28;6186089;23;20162;-89
2023/06/10 06:38:40;;;;;;;8.63;4.07;;;;;;;26.22;53.10;98430.09;6186087;23;20607;-90
2023/06/10 06:41:07;;;;;;;5.60;2.40;;;;;;;26.34;51.88;98416.94;6185638;23;20150;-89
2023/06/10 06:43:34;;;;;;;5.80;3.00;;;;;;;26.39;51.41;98426.06;6185827;23;20479;-89
2023/06/10 06:46:03;;;;;;;4.30;2.20;;;;;;;26.48;50.59;98418.69;6160118;23;20165;-89
2023/06/10 06:48:33;;;;;;;5.13;2.27;;;;;;;26.55;49.98;98420.38;6159647;23;20163;-89
2023/06/10 06:51:28;;;;;;;3.33;2.17;;;;;;;26.70;49.90;98407.59;6159511;23;20544;-90
2023/06/10 06:53:58;;;;;;;4.80;2.47;;;;;;;26.81;50.05;98414.31;6159488;23;20146;-89
2023/06/10 06:56:35;;;;;;;4.37;2.60;;;;;;;27.09;47.79;98415.03;6159616;23;20151;-90
2023/06/10 06:59:04;;;;;;;5.30;2.43;;;;;;;27.32;48.91;98412.81;6185633;23;20138;-89
2023/06/10 07:02:01;;;;;;;4.67;2.50;;;;;;;27.44;48.37;98408.50;6159502;23;20166;-90
2023/06/10 07:04:26;;;;;;;5.77;2.70;;;;;;;27.59;47.50;98416.41;6184406;23;20300;-89
2023/06/10 07:07:27;;;;;;;5.97;1.87;;;;;;;27.44;48.12;98413.91;6159045;23;20233;-90
2023/06/10 07:10:35;;;;;;;5.22;2.20;;;;;;;27.66;46.90;98411.00;6143463;23;20154;-90
2023/06/10 07:13:15;;;;;;;5.43;2.03;;;;;;;27.87;48.21;98405.44;6066432;23;20183;-89
2023/06/10 07:15:43;;;;;;;4.25;2.47;;;;;;;28.26;48.04;98409.97;6178762;23;20165;-90
2023/06/10 07:18:11;;;;;;;5.15;2.50;;;;;;;28.50;46.78;98406.59;6185498;23;20158;-90
2023/06/10 07:21:15;;;;;;;;;;;;;;;;;;;;;
2023/06/10 07:24:06;;;;;;;4.85;1.95;;;;;;;28.63;44.60;98407.41;6177622;23;20233;-89
2023/06/10 07:27:37;;;;;;;;;;;;;;;;;;;;;
2023/06/10 07:29:52;;;;;;;4.10;2.42;;;;;;;28.87;45.17;98399.63;6176215;23;20158;-90
2023/06/10 07:36:33;;;;;;;;;;;;;;;;;;;;;
2023/06/10 07:39:15;;;;;;;4.78;2.47;;;;;;;29.58;42.63;98395.69;5950672;24;20171;-89
2023/06/10 07:42:23;;;;;;;5.63;2.42;;;;;;;29.35;42.29;98398.13;5930046;24;20171;-89
2023/06/10 07:49:06;;;;;;;4.00;2.28;;;;;;;29.65;43.92;98384.81;5898005;24;20157;-91
2023/06/10 07:56:06;;;;;;;5.00;2.47;;;;;;;30.07;41.45;98388.63;5790583;24;20183;-90
2023/06/10 08:45:12;;;;;;;4.95;2.60;;;;;;;31.80;37.24;98390.59;5821418;24;20174;-91
2023/06/10 09:13:33;;;;;;;4.18;2.40;;;;;;;31.89;36.02;98353.97;5817677;24;20213;-91
2023/06/10 09:16:56;;;;;;;5.63;2.22;;;;;;;31.84;36.01;98357.34;5819235;24;20167;-92
2023/06/10 09:35:25;;;;;;;5.82;1.90;;;;;;;31.51;33.65;98343.56;5691075;25;20289;-91
2023/06/10 09:38:25;;;;;;;2.47;1.17;;;;;;;31.41;32.06;98343.28;5712227;25;20221;-91
2023/06/10 09:47:41;;;;;;;4.53;1.90;;;;;;;31.68;32.80;98336.41;5689232;25;20270;-90
2023/06/10 09:50:09;;;;;;;4.18;1.60;;;;;;;31.65;31.87;98342.28;5804858;24;20210;-89
2023/06/10 09:54:01;;;;;;;3.20;1.50;;;;;;;31.61;33.62;98344.63;5891173;24;20211;-90
2023/06/10 09:56:02;;;;;;;4.40;1.30;;;;;;;31.71;34.56;98337.81;5930092;23;20165;-90
2023/06/10 09:58:43;;;;;;;2.85;1.60;;;;;;;31.79;33.03;98338.25;6091303;23;20185;-90
2023/06/10 10:01:12;;;;;;;3.50;2.05;;;;;;;31.85;34.12;98342.75;6042706;23;20170;-90
2023/06/10 10:03:53;;;;;;;6.25;1.75;;;;;;;32.17;33.09;98341.38;6042631;23;20153;-91
2023/06/10 10:07:10;;;;;;;3.97;1.58;;;;;;;32.46;31.94;98336.81;6042741;23;20161;-89
2023/06/10 10:09:41;;;;;;;3.10;1.40;;;;;;;32.58;32.07;98331.38;6021047;23;20499;-90
2023/06/10 10:12:15;;;;;;;3.80;1.60;;;;;;;32.70;32.91;98333.00;6094010;23;20267;-90
2023/06/10 10:17:58;;;;;;;3.88;2.22;;;;;;;32.92;31.31;98329.59;6111311;23;20255;-91
2023/06/10 10:20:55;;;;;;;5.35;2.40;;;;;;;33.02;31.90;98318.94;6102201;23;20164;-90
2023/06/10 10:24:18;;;;;;;4.70;2.00;;;;;;;33.24;31.62;98314.47;6105477;23;20159;-90
2023/06/10 10:30:11;;;;;;;;;;;;;;;;;;;;;
2023/06/10 10:33:05;;;;;;;;;;;;;;;;;;;;;
2023/06/10 10:35:48;;;;;;;3.47;1.60;;;;;;;33.55;32.93;98315.78;6009319;23;20241;-90
2023/06/10 10:38:16;;;;;;;7.55;1.80;;;;;;;33.28;32.24;98305.56;6009201;23;20194;-89
2023/06/10 10:40:44;;;;;;;3.78;1.85;;;;;;;33.27;32.24;98306.66;6009097;23;20185;-89
2023/06/10 10:43:12;;;;;;;5.28;2.42;;;;;;;33.28;31.11;98310.22;6009767;23;20154;-89
2023/06/10 10:45:41;;;;;;;7.47;2.67;;;;;;;33.27;32.85;98312.09;6009706;23;20159;-89
2023/06/10 10:48:23;;;;;;;6.00;2.15;;;;;;;33.26;33.45;98298.75;6103220;23;20163;-90
2023/06/10 10:50:57;;;;;;;3.58;1.60;;;;;;;33.53;33.06;98293.47;6101012;23;20155;-89
2023/06/10 10:53:25;;;;;;;3.33;1.85;;;;;;;33.63;32.77;98293.66;6101645;23;20178;-89
2023/06/10 10:56:08;;;;;;;2.85;1.48;;;;;;;33.80;31.66;98294.50;6100613;23;20156;-90
2023/06/10 10:58:33;;;;;;;4.25;1.83;;;;;;;33.75;33.47;98295.22;6125210;23;20553;-90
2023/06/10 11:01:01;;;;;;;4.88;2.05;;;;;;;33.57;31.61;98300.91;6126660;23;20231;-89
2023/06/10 11:03:34;;;;;;;4.55;1.90;;;;;;;33.41;32.11;98297.09;6126020;23;20155;-89
2023/06/10 11:06:00;;;;;;;4.05;1.60;;;;;;;33.42;32.70;98297.94;6126931;23;20144;-89
2023/06/10 11:08:32;;;;;;;3.53;1.73;;;;;;;33.33;33.27;98281.22;6126195;23;20174;-89
2023/06/10 11:10:57;;;;;;;3.67;1.70;;;;;;;33.55;32.80;98288.63;6126114;23;20568;-89
2023/06/10 11:13:32;;;;;;;4.85;1.67;;;;;;;33.90;31.90;98289.19;6126030;23;20175;-89
2023/06/10 11:15:58;;;;;;;3.35;1.50;;;;;;;34.08;31.35;98290.81;6126934;23;20131;-89
2023/06/10 11:18:39;;;;;;;3.60;1.80;;;;;;;34.16;32.38;98276.78;6126448;23;20265;-89
2023/06/10 11:21:05;;;;;;;5.28;2.35;;;;;;;34.17;31.08;98279.28;6126350;23;20136;-89
2023/06/10 11:24:14;;;;;;;2.97;1.63;;;;;;;34.04;31.85;98259.75;6100587;23;20162;-90
2023/06/10 11:26:47;;;;;;;4.80;1.88;;;;;;;33.76;31.98;98275.13;6034478;23;20229;-90
2023/06/10 11:29:16;;;;;;;7.18;2.10;;;;;;;33.64;31.67;98268.97;6052016;23;20171;-90
2023/06/10 11:31:54;;;;;;;3.67;2.10;;;;;;;33.64;32.18;98262.72;6097661;23;20171;-90
2023/06/10 11:34:29;;;;;;;3.08;1.70;;;;;;;33.78;30.95;98269.44;6100891;23;20175;-90
2023/06/10 11:36:57;;;;;;;6.53;1.85;;;;;;;33.74;30.89;98260.13;6109905;23;20198;-89
2023/06/10 11:39:26;;;;;;;4.00;1.90;;;;;;;33.70;29.20;98262.53;6155572;23;20478;-89
2023/06/10 11:41:52;;;;;;;7.80;1.63;;;;;;;33.62;29.27;98270.28;6155351;23;20521;-89
2023/06/10 11:44:19;;;;;;;4.20;1.83;;;;;;;33.60;29.63;98262.38;6156032;23;20230;-89
2023/06/10 11:46:45;;;;;;;3.70;1.75;;;;;;;33.50;31.15;98266.78;6129627;23;20154;-89
2023/06/10 11:49:14;;;;;;;4.03;1.35;;;;;;;33.31;29.44;98264.34;6156119;23;20227;-89
2023/06/10 11:51:44;;;;;;;3.85;1.67;;;;;;;33.25;29.99;98275.38;6157976;23;20170;-89
2023/06/10 11:54:10;;;;;;;4.88;1.83;;;;;;;33.14;30.71;98271.66;6133076;23;20214;-90
2023/06/10 11:57:03;;;;;;;3.58;2.00;;;;;;;32.66;30.29;98279.44;6131853;23;20508;-90
2023/06/10 11:59:40;;;;;;;;;;;;;;;;;;;;;
2023/06/10 12:02:14;;;;;;;5.82;2.40;;;;;;;32.45;33.33;98274.66;6157974;23;20238;-90
2023/06/10 12:04:43;;;;;;;4.70;2.85;;;;;;;32.34;34.14;98273.63;6132457;23;20167;-90
2023/06/10 12:07:22;;;;;;;4.85;2.75;;;;;;;32.29;33.92;98275.41;6157206;23;20152;-90
2023/06/10 12:09:59;;;;;;;8.82;2.90;;;;;;;32.15;35.74;98272.16;6157721;23;20544;-89
2023/06/10 12:12:26;;;;;;;3.78;1.55;;;;;;;32.06;36.99;98277.13;6157387;23;20167;-89
2023/06/10 12:15:02;;;;;;;15.10;8.43;;;;;;;31.93;37.07;98277.34;6157556;23;20178;-90
2023/06/10 12:17:36;;;;;;;3.95;2.10;;;;;;;31.62;38.79;98277.72;6132966;23;20151;-89
2023/06/10 12:20:06;;;;;;;6.32;2.22;;;;;;;31.35;40.40;98268.34;6132815;23;20537;-89
2023/06/10 12:22:42;;;;;;;7.63;1.88;;;;;;;31.03;41.06;98281.38;6157295;23;20147;-89
2023/06/10 12:25:10;;;;;;;7.95;3.95;;;;;;;30.94;41.64;98282.75;6157298;23;20136;-90
2023/06/10 12:27:38;;;;;;;4.97;2.58;;;;;;;30.94;40.94;98272.78;6157139;23;20241;-89
2023/06/10 12:30:06;;;;;;;5.88;3.55;;;;;;;30.99;40.38;98266.66;6131422;23;20165;-89
2023/06/10 12:32:45;;;;;;;4.70;2.00;;;;;;;30.86;41.68;98273.06;6156916;23;20630;-89
2023/06/10 12:35:21;;;;;;;4.22;1.98;;;;;;;30.72;41.08;98273.47;6131192;23;20243;-90
2023/06/10 12:38:06;;;;;;;3.90;2.13;;;;;;;30.54;41.78;98277.06;6157727;23;20205;-89
2023/06/10 12:40:38;;;;;;;3.85;1.90;;;;;;;30.43;42.35;98285.94;6157030;23;20147;-89
2023/06/10 12:43:06;;;;;;;3.20;1.75;;;;;;;30.42;42.49;98281.59;6156891;23;20222;-89
2023/06/10 12:45:39;;;;;;;3.67;1.77;;;;;;;30.45;43.11;98280.31;6157306;23;20151;-89
2023/06/10 12:48:10;;;;;;;6.10;2.35;;;;;;;30.36;42.71;98280.63;6157275;23;20136;-89
2023/06/10 12:50:44;;;;;;;5.45;2.00;;;;;;;30.40;42.28;98280.97;6131055;23;20159;-89
2023/06/10 12:53:11;;;;;;;3.28;1.73;;;;;;;30.38;42.14;98277.69;6157103;23;20265;-89
2023/06/10 12:55:39;;;;;;;5.95;1.75;;;;;;;30.24;43.01;98287.00;6132100;23;20519;-89
2023/06/10 12:58:09;;;;;;;4.43;1.58;;;;;;;30.20;42.37;98281.19;6131456;23;20155;-89
2023/06/10 13:00:36;;;;;;;4.47;1.80;;;;;;;30.18;42.40;98279.78;6156286;23;20222;-88
2023/06/10 13:03:05;;;;;;;7.05;1.92;;;;;;;29.91;42.26;98281.13;6157384;23;20144;-89
2023/06/10 13:05:32;;;;;;;4.47;2.30;;;;;;;29.90;42.73;98277.56;6156547;23;20182;-89
2023/06/10 13:07:59;;;;;;;5.20;2.25;;;;;;;30.04;42.11;98270.16;6157377;23;20151;-89
2023/06/10 13:10:27;;;;;;;3.17;1.52;;;;;;;29.98;42.38;98273.78;6156678;23;20642;-89
2023/06/10 13:12:54;;;;;;;5.07;1.85;;;;;;;30.09;42.06;98276.53;6156512;23;20513;-89
2023/06/10 13:15:20;;;;;;;3.83;1.58;;;;;;;30.06;41.70;98268.88;6156899;23;20226;-88
2023/06/10 13:17:49;;;;;;;3.72;1.73;;;;;;;29.95;41.69;98276.94;6156576;23;20178;-89
2023/06/10 13:20:16;;;;;;;3.63;1.80;;;;;;;29.87;42.50;98274.53;6157289;23;20154;-89
2023/06/10 13:22:43;;;;;;;7.38;2.13;;;;;;;29.96;41.90;98273.16;6130853;23;20155;-88
2023/06/10 13:25:10;;;;;;;4.78;1.80;;;;;;;29.98;41.84;98265.69;6130687;23;20151;-88
2023/06/10 13:27:41;;;;;;;4.22;1.90;;;;;;;29.99;42.47;98270.00;6156515;23;20171;-88
2023/06/10 13:30:09;;;;;;;3.60;1.63;;;;;;;30.04;42.12;98264.75;6156511;23;20139;-89
2023/06/10 13:32:36;;;;;;;6.78;1.92;;;;;;;30.22;42.55;98270.16;6156418;23;20179;-89
2023/06/10 13:35:03;;;;;;;3.45;1.92;;;;;;;30.11;42.87;98266.31;6156495;23;20151;-89
2023/06/10 13:37:29;;;;;;;5.57;2.47;;;;;;;30.19;42.46;98267.91;6156414;23;20177;-88
2023/06/10 13:39:56;;;;;;;4.30;1.88;;;;;;;30.24;42.10;98271.56;6156288;23;20174;-88
2023/06/10 13:42:23;;;;;;;4.15;1.70;;;;;;;30.23;41.99;98266.41;6156499;23;20159;-88
2023/06/10 13:44:51;;;;;;;6.68;2.03;;;;;;;30.14;41.47;98259.63;6156707;23;20566;-88
2023/06/10 13:47:18;;;;;;;3.55;1.70;;;;;;;30.06;41.86;98260.78;6156440;23;20222;-89
2023/06/10 13:49:44;;;;;;;4.03;1.95;;;;;;;30.08;41.89;98257.84;6130852;23;20155;-88
2023/06/10 13:52:11;;;;;;;6.63;2.42;;;;;;;30.17;42.24;98253.78;6156856;23;20263;-89
2023/06/10 13:54:38;;;;;;;3.88;2.03;;;;;;;30.20;42.55;98264.16;6130551;23;20571;-88